^^
Saratoga-Weather Station Historical Data
Daily Summary for April 16, 2020 Units:  Both    English   Metric
Daily Weekly Monthly Yearly Custom
  High: Low: Average:
Temperature: 52.3 °F /  11.3 °C 49.3 °F /  9.6 °C 50.5 °F /  10.3 °C
Dew Point: 48.2 °F /  9 °C 44.8 °F /  7.1 °C 46.6 °F /  8.1 °C
Humidity: 92% 81% 87%
Wind Speed: 10.1mph /  16.3km/h - 3.2mph /  5.2km/h
Wind Gust: 16mph /  25.7km/h - -
Wind- - West
Pressure: 30.2 in /  1022.7 hPa 29.8 in /  1008.5 hPa -
Precipitation: 0.02 in /  0.5 mm    
Historical Graphs
 
 
Tabular Data for April 16, 2020
Time Temperature Dew Point Pressure Wind Wind Speed Wind Gust Humidity Rainfall Rate (Hourly) solar
00:00 51.4 °F /  10.8 °C 46.4 °F /  8 °C 29.8in /  1008.5hPa West 8.1mph /  13km/h 8mph /  12.9km/h 83% 0in /  0.0mm 0 W/m2
00:05 51.4 °F /  10.8 °C 46.8 °F /  8.2 °C 29.8in /  1008.8hPa WNW 10.1mph /  16.3km/h 10mph /  16.1km/h 84% 0in /  0.0mm 0 W/m2
00:10 51.3 °F /  10.7 °C 46.2 °F /  7.9 °C 29.8in /  1008.8hPa West 4mph /  6.4km/h 12mph /  19.3km/h 83% 0in /  0.0mm 0 W/m2
00:15 51.3 °F /  10.7 °C 46.2 °F /  7.9 °C 29.8in /  1008.8hPa WNW 4mph /  6.4km/h 10mph /  16.1km/h 83% 0in /  0.0mm 0 W/m2
00:20 51.3 °F /  10.7 °C 46.2 °F /  7.9 °C 29.8in /  1009.1hPa West 4mph /  6.4km/h 13mph /  20.9km/h 83% 0in /  0.0mm 0 W/m2
00:25 51.3 °F /  10.7 °C 46.2 °F /  7.9 °C 29.8in /  1009.1hPa NW 4.9mph /  7.9km/h 9mph /  14.5km/h 83% 0in /  0.0mm 0 W/m2
00:30 51.3 °F /  10.7 °C 46.2 °F /  7.9 °C 29.8in /  1009.1hPa WNW 2.9mph /  4.7km/h 15mph /  24.1km/h 83% 0in /  0.0mm 0 W/m2
00:35 51.1 °F /  10.6 °C 46 °F /  7.8 °C 29.8in /  1009.1hPa West 4mph /  6.4km/h 8mph /  12.9km/h 83% 0in /  0.0mm 0 W/m2
00:40 51.1 °F /  10.6 °C 46 °F /  7.8 °C 29.8in /  1009.1hPa NW 6mph /  9.7km/h 10mph /  16.1km/h 83% 0in /  0.0mm 0 W/m2
00:45 50.9 °F /  10.5 °C 45.7 °F /  7.6 °C 29.8in /  1009.1hPa WNW 2mph /  3.2km/h 11mph /  17.7km/h 82% 0in /  0.0mm 0 W/m2
00:50 50.9 °F /  10.5 °C 45.7 °F /  7.6 °C 29.8in /  1009.1hPa WNW 8.9mph /  14.3km/h 14mph /  22.5km/h 82% 0in /  0.0mm 0 W/m2
00:55 50.9 °F /  10.5 °C 45.7 °F /  7.6 °C 29.8in /  1009.1hPa NW 2.9mph /  4.7km/h 9mph /  14.5km/h 82% 0in /  0.0mm 0 W/m2
01:00 50.7 °F /  10.4 °C 45.5 °F /  7.5 °C 29.8in /  1009.1hPa WNW 2.9mph /  4.7km/h 8mph /  12.9km/h 82% 0in /  0.0mm 0 W/m2
01:05 50.7 °F /  10.4 °C 45.5 °F /  7.5 °C 29.8in /  1009.1hPa WNW 2.9mph /  4.7km/h 8mph /  12.9km/h 82% 0in /  0.0mm 0 W/m2
01:10 50.7 °F /  10.4 °C 45.5 °F /  7.5 °C 29.8in /  1009.1hPa WNW 4mph /  6.4km/h 10mph /  16.1km/h 82% 0in /  0.0mm 0 W/m2
01:15 50.7 °F /  10.4 °C 45.5 °F /  7.5 °C 29.8in /  1009.1hPa West 2mph /  3.2km/h 8mph /  12.9km/h 82% 0in /  0.0mm 0 W/m2
01:21 50.7 °F /  10.4 °C 45.5 °F /  7.5 °C 29.8in /  1009.1hPa NNW 8.1mph /  13km/h 13mph /  20.9km/h 82% 0in /  0.0mm 0 W/m2
01:26 50.7 °F /  10.4 °C 45.1 °F /  7.3 °C 29.8in /  1009.1hPa North 4mph /  6.4km/h 9mph /  14.5km/h 81% 0in /  0.0mm 0 W/m2
01:31 50.5 °F /  10.3 °C 45.3 °F /  7.4 °C 29.8in /  1009.1hPa NW 2.9mph /  4.7km/h 13mph /  20.9km/h 82% 0in /  0.0mm 0 W/m2
01:36 50.5 °F /  10.3 °C 45.3 °F /  7.4 °C 29.8in /  1009.1hPa NW 2.9mph /  4.7km/h 10mph /  16.1km/h 82% 0in /  0.0mm 0 W/m2
01:41 50.5 °F /  10.3 °C 45.3 °F /  7.4 °C 29.8in /  1009.1hPa North 2.9mph /  4.7km/h 13mph /  20.9km/h 82% 0in /  0.0mm 0 W/m2
01:46 50.5 °F /  10.3 °C 45.3 °F /  7.4 °C 29.8in /  1009.5hPa WNW 8.1mph /  13km/h 8mph /  12.9km/h 82% 0in /  0.0mm 0 W/m2
01:51 50.5 °F /  10.3 °C 45 °F /  7.2 °C 29.8in /  1009.5hPa West 2.9mph /  4.7km/h 9mph /  14.5km/h 81% 0in /  0.0mm 0 W/m2
01:56 50.5 °F /  10.3 °C 45 °F /  7.2 °C 29.8in /  1009.5hPa NW 4mph /  6.4km/h 6mph /  9.7km/h 81% 0in /  0.0mm 0 W/m2
02:01 50.4 °F /  10.2 °C 44.8 °F /  7.1 °C 29.8in /  1009.5hPa NNW 2.9mph /  4.7km/h 7mph /  11.3km/h 81% 0in /  0.0mm 0 W/m2
02:06 50.4 °F /  10.2 °C 44.8 °F /  7.1 °C 29.8in /  1009.8hPa NNW 6mph /  9.7km/h 10mph /  16.1km/h 81% 0in /  0.0mm 0 W/m2
02:11 50.4 °F /  10.2 °C 44.8 °F /  7.1 °C 29.8in /  1009.8hPa West 4mph /  6.4km/h 4mph /  6.4km/h 81% 0in /  0.0mm 0 W/m2
02:16 50.4 °F /  10.2 °C 44.8 °F /  7.1 °C 29.8in /  1010.2hPa NW 6mph /  9.7km/h 9mph /  14.5km/h 81% 0in /  0.0mm 0 W/m2
02:21 50.4 °F /  10.2 °C 44.8 °F /  7.1 °C 29.8in /  1010.2hPa WNW 0.9mph /  1.4km/h 7mph /  11.3km/h 81% 0in /  0.0mm 0 W/m2
02:26 50.2 °F /  10.1 °C 45.1 °F /  7.3 °C 29.8in /  1010.2hPa WNW 6.9mph /  11.1km/h 9mph /  14.5km/h 83% 0in /  0.0mm 0 W/m2
02:31 50 °F /  10 °C 45 °F /  7.2 °C 29.8in /  1010.5hPa WNW 2.9mph /  4.7km/h 6mph /  9.7km/h 83% 0in /  0.0mm 0 W/m2
02:36 50 °F /  10 °C 45 °F /  7.2 °C 29.8in /  1010.5hPa West 2.9mph /  4.7km/h 7mph /  11.3km/h 83% 0in /  0.0mm 0 W/m2
02:41 50.2 °F /  10.1 °C 45 °F /  7.2 °C 29.8in /  1010.5hPa WNW 2mph /  3.2km/h 8mph /  12.9km/h 82% 0in /  0.0mm 0 W/m2
02:46 50.2 °F /  10.1 °C 45 °F /  7.2 °C 29.8in /  1010.5hPa WSW 2mph /  3.2km/h 7mph /  11.3km/h 82% 0in /  0.0mm 0 W/m2
02:51 50.2 °F /  10.1 °C 45.1 °F /  7.3 °C 29.9in /  1010.8hPa SW 2.9mph /  4.7km/h 7mph /  11.3km/h 83% 0in /  0.0mm 0 W/m2
02:56 50.2 °F /  10.1 °C 45.1 °F /  7.3 °C 29.9in /  1010.8hPa SW 2mph /  3.2km/h 8mph /  12.9km/h 83% 0in /  0.0mm 0 W/m2
03:01 50.2 °F /  10.1 °C 45 °F /  7.2 °C 29.9in /  1010.8hPa NNW 8.1mph /  13km/h 8mph /  12.9km/h 82% 0in /  0.0mm 0 W/m2
03:06 50.4 °F /  10.2 °C 45.1 °F /  7.3 °C 29.9in /  1010.8hPa NNW 2mph /  3.2km/h 12mph /  19.3km/h 82% 0in /  0.0mm 0 W/m2
03:11 50.5 °F /  10.3 °C 45.3 °F /  7.4 °C 29.9in /  1010.8hPa Calm   7mph /  11.3km/h 82% 0in /  0.0mm 0 W/m2
03:16 50.5 °F /  10.3 °C 45.3 °F /  7.4 °C 29.9in /  1010.8hPa WNW 6.9mph /  11.1km/h 12mph /  19.3km/h 82% 0in /  0.0mm 0 W/m2
03:21 50.5 °F /  10.3 °C 45.3 °F /  7.4 °C 29.9in /  1010.8hPa SSW 8.9mph /  14.3km/h 9mph /  14.5km/h 82% 0in /  0.0mm 0 W/m2
03:26 50.5 °F /  10.3 °C 45 °F /  7.2 °C 29.9in /  1011.2hPa NNW 4.9mph /  7.9km/h 11mph /  17.7km/h 81% 0in /  0.0mm 0 W/m2
03:31 50.5 °F /  10.3 °C 45 °F /  7.2 °C 29.9in /  1011.2hPa North 2.9mph /  4.7km/h 9mph /  14.5km/h 81% 0in /  0.0mm 0 W/m2
03:36 50.5 °F /  10.3 °C 45 °F /  7.2 °C 29.9in /  1011.2hPa NW 6.9mph /  11.1km/h 9mph /  14.5km/h 81% 0in /  0.0mm 0 W/m2
03:41 50.5 °F /  10.3 °C 45 °F /  7.2 °C 29.9in /  1011.2hPa SW 2.9mph /  4.7km/h 7mph /  11.3km/h 81% 0in /  0.0mm 0 W/m2
03:46 50.5 °F /  10.3 °C 45.3 °F /  7.4 °C 29.9in /  1011.5hPa SSW 6.9mph /  11.1km/h 12mph /  19.3km/h 82% 0in /  0.0mm 0 W/m2
03:51 50.5 °F /  10.3 °C 45.3 °F /  7.4 °C 29.9in /  1011.5hPa NW 2mph /  3.2km/h 12mph /  19.3km/h 82% 0in /  0.0mm 0 W/m2
03:56 50.4 °F /  10.2 °C 45.1 °F /  7.3 °C 29.9in /  1011.5hPa North 4mph /  6.4km/h 8mph /  12.9km/h 82% 0in /  0.0mm 0 W/m2
04:01 50.4 °F /  10.2 °C 45.1 °F /  7.3 °C 29.9in /  1011.5hPa NW 2.9mph /  4.7km/h 12mph /  19.3km/h 82% 0in /  0.0mm 0 W/m2
04:06 50.4 °F /  10.2 °C 45.1 °F /  7.3 °C 29.9in /  1011.5hPa West 6mph /  9.7km/h 8mph /  12.9km/h 82% 0in /  0.0mm 0 W/m2
04:11 50.4 °F /  10.2 °C 45.3 °F /  7.4 °C 29.9in /  1011.5hPa West 2.9mph /  4.7km/h 8mph /  12.9km/h 83% 0in /  0.0mm 0 W/m2
04:16 50.2 °F /  10.1 °C 45.1 °F /  7.3 °C 29.9in /  1011.5hPa SW 2.9mph /  4.7km/h 9mph /  14.5km/h 83% 0in /  0.0mm 0 W/m2
04:21 50.2 °F /  10.1 °C 45.1 °F /  7.3 °C 29.9in /  1011.5hPa North 2.9mph /  4.7km/h 4mph /  6.4km/h 83% 0in /  0.0mm 0 W/m2
04:26 50.2 °F /  10.1 °C 45.5 °F /  7.5 °C 29.9in /  1011.2hPa West 2mph /  3.2km/h 8mph /  12.9km/h 84% 0in /  0.0mm 0 W/m2
04:31 49.8 °F /  9.9 °C 45.5 °F /  7.5 °C 29.9in /  1011.5hPa SE 0.9mph /  1.4km/h 9mph /  14.5km/h 85% 0in /  0.0mm 0 W/m2
04:36 49.6 °F /  9.8 °C 45.3 °F /  7.4 °C 29.9in /  1011.5hPa WNW 0.9mph /  1.4km/h 9mph /  14.5km/h 85% 0in /  0.0mm 0 W/m2
04:41 49.6 °F /  9.8 °C 45.7 °F /  7.6 °C 29.9in /  1011.5hPa SSW 2.9mph /  4.7km/h 11mph /  17.7km/h 86% 0in /  0.0mm 0 W/m2
04:46 49.6 °F /  9.8 °C 45.7 °F /  7.6 °C 29.9in /  1011.5hPa ENE 0.9mph /  1.4km/h 9mph /  14.5km/h 86% 0in /  0.0mm 0 W/m2
04:51 49.6 °F /  9.8 °C 45.7 °F /  7.6 °C 29.9in /  1011.5hPa SW 2.9mph /  4.7km/h 11mph /  17.7km/h 86% 0in /  0.0mm 0 W/m2
04:56 49.6 °F /  9.8 °C 45.7 °F /  7.6 °C 29.9in /  1011.5hPa NW 4.9mph /  7.9km/h 11mph /  17.7km/h 86% 0in /  0.0mm 0 W/m2
05:01 49.6 °F /  9.8 °C 45.7 °F /  7.6 °C 29.9in /  1011.9hPa WNW 6.9mph /  11.1km/h 8mph /  12.9km/h 86% 0in /  0.0mm 0 W/m2
05:06 49.6 °F /  9.8 °C 45.7 °F /  7.6 °C 29.9in /  1011.9hPa NE 2.9mph /  4.7km/h 7mph /  11.3km/h 86% 0in /  0.0mm 0 W/m2
05:11 49.6 °F /  9.8 °C 45.7 °F /  7.6 °C 29.9in /  1011.9hPa NNE 0.9mph /  1.4km/h 5mph /  8km/h 86% 0in /  0.0mm 0 W/m2
05:16 49.5 °F /  9.7 °C 45.7 °F /  7.6 °C 29.9in /  1011.9hPa SSW 2mph /  3.2km/h 6mph /  9.7km/h 87% 0in /  0.0mm 0 W/m2
05:21 49.5 °F /  9.7 °C 45.7 °F /  7.6 °C 29.9in /  1011.9hPa North 4mph /  6.4km/h 10mph /  16.1km/h 87% 0in /  0.0mm 0 W/m2
05:26 49.3 °F /  9.6 °C 45.5 °F /  7.5 °C 29.9in /  1011.9hPa NW 2.9mph /  4.7km/h 7mph /  11.3km/h 87% 0in /  0.0mm 0 W/m2
05:31 49.5 °F /  9.7 °C 45.7 °F /  7.6 °C 29.9in /  1011.9hPa West 6.9mph /  11.1km/h 10mph /  16.1km/h 87% 0in /  0.0mm 0 W/m2
05:36 49.5 °F /  9.7 °C 45.7 °F /  7.6 °C 29.9in /  1012.2hPa NW 4mph /  6.4km/h 6mph /  9.7km/h 87% 0in /  0.0mm 0 W/m2
05:41 49.5 °F /  9.7 °C 45.7 °F /  7.6 °C 29.9in /  1012.2hPa North 2mph /  3.2km/h 9mph /  14.5km/h 87% 0in /  0.0mm 0 W/m2
05:46 49.5 °F /  9.7 °C 45.5 °F /  7.5 °C 29.9in /  1012.2hPa NW 8.1mph /  13km/h 9mph /  14.5km/h 86% 0in /  0.0mm 0 W/m2
05:51 49.5 °F /  9.7 °C 45.5 °F /  7.5 °C 29.9in /  1012.5hPa SW 2mph /  3.2km/h 2mph /  3.2km/h 86% 0in /  0.0mm 0 W/m2
05:56 49.6 °F /  9.8 °C 45.7 °F /  7.6 °C 29.9in /  1012.5hPa NW 6.9mph /  11.1km/h 11mph /  17.7km/h 86% 0in /  0.0mm 0 W/m2
06:01 49.6 °F /  9.8 °C 45.7 °F /  7.6 °C 29.9in /  1012.5hPa NNW 4mph /  6.4km/h 9mph /  14.5km/h 86% 0in /  0.0mm 0 W/m2
06:06 49.8 °F /  9.9 °C 45.5 °F /  7.5 °C 29.9in /  1012.5hPa WNW 2.9mph /  4.7km/h 8mph /  12.9km/h 85% 0in /  0.0mm 0 W/m2
06:11 49.8 °F /  9.9 °C 45.5 °F /  7.5 °C 29.9in /  1012.9hPa SSE 4.9mph /  7.9km/h 5mph /  8km/h 85% 0in /  0.0mm 0 W/m2
06:16 50 °F /  10 °C 45.7 °F /  7.6 °C 29.9in /  1012.9hPa NE 0.9mph /  1.4km/h 4mph /  6.4km/h 85% 0in /  0.0mm 0 W/m2
06:21 50 °F /  10 °C 45.7 °F /  7.6 °C 29.9in /  1012.9hPa WNW 2mph /  3.2km/h 9mph /  14.5km/h 85% 0in /  0.0mm 0 W/m2
06:26 50 °F /  10 °C 46 °F /  7.8 °C 29.9in /  1012.9hPa NW 4.9mph /  7.9km/h 5mph /  8km/h 86% 0in /  0.0mm 0 W/m2
06:31 50 °F /  10 °C 46 °F /  7.8 °C 29.9in /  1013.2hPa NNE 2.9mph /  4.7km/h 7mph /  11.3km/h 86% 0in /  0.0mm 0 W/m2
06:36 49.8 °F /  9.9 °C 45.9 °F /  7.7 °C 29.9in /  1013.2hPa WNW 2mph /  3.2km/h 7mph /  11.3km/h 86% 0in /  0.0mm 0 W/m2
06:41 49.8 °F /  9.9 °C 45.9 °F /  7.7 °C 29.9in /  1013.2hPa SSW 0.9mph /  1.4km/h 16mph /  25.7km/h 86% 0in /  0.0mm 0 W/m2
06:46 50 °F /  10 °C 46 °F /  7.8 °C 29.9in /  1013.2hPa West 2.9mph /  4.7km/h 11mph /  17.7km/h 86% 0in /  0.0mm 0 W/m2
06:51 50 °F /  10 °C 46 °F /  7.8 °C 29.9in /  1013.2hPa West 4mph /  6.4km/h 16mph /  25.7km/h 86% 0in /  0.0mm 0 W/m2
06:56 50 °F /  10 °C 46 °F /  7.8 °C 29.9in /  1013.5hPa WSW 8.1mph /  13km/h 9mph /  14.5km/h 86% 0in /  0.0mm 0 W/m2
07:01 50 °F /  10 °C 46 °F /  7.8 °C 29.9in /  1013.5hPa NW 2mph /  3.2km/h 6mph /  9.7km/h 86% 0in /  0.0mm 0 W/m2
07:06 50 °F /  10 °C 46 °F /  7.8 °C 29.9in /  1013.5hPa West 0.9mph /  1.4km/h 3mph /  4.8km/h 86% 0in /  0.0mm 0 W/m2
07:11 50 °F /  10 °C 46 °F /  7.8 °C 29.9in /  1013.5hPa West 4mph /  6.4km/h 8mph /  12.9km/h 86% 0in /  0.0mm 0 W/m2
07:16 50 °F /  10 °C 46 °F /  7.8 °C 29.9in /  1013.5hPa NW 0.9mph /  1.4km/h 6mph /  9.7km/h 86% 0in /  0.0mm 0 W/m2
07:21 50 °F /  10 °C 46 °F /  7.8 °C 29.9in /  1013.5hPa NW 6mph /  9.7km/h 12mph /  19.3km/h 86% 0in /  0.0mm 0 W/m2
07:26 50 °F /  10 °C 46 °F /  7.8 °C 29.9in /  1013.5hPa West 4mph /  6.4km/h 9mph /  14.5km/h 86% 0in /  0.0mm 0 W/m2
07:31 50 °F /  10 °C 46 °F /  7.8 °C 29.9in /  1013.5hPa Calm   12mph /  19.3km/h 86% 0in /  0.0mm 0 W/m2
07:36 50 °F /  10 °C 46 °F /  7.8 °C 29.9in /  1013.9hPa Calm   9mph /  14.5km/h 86% 0in /  0.0mm 0 W/m2
07:41 50 °F /  10 °C 46 °F /  7.8 °C 30in /  1014.2hPa WNW 2mph /  3.2km/h 4mph /  6.4km/h 86% 0in /  0.0mm 0 W/m2
07:46 50 °F /  10 °C 46 °F /  7.8 °C 29.9in /  1013.9hPa NW 2.9mph /  4.7km/h 9mph /  14.5km/h 86% 0in /  0.0mm 0 W/m2
07:51 50.2 °F /  10.1 °C 46.2 °F /  7.9 °C 30in /  1014.2hPa West 4mph /  6.4km/h 7mph /  11.3km/h 86% 0in /  0.0mm 0 W/m2
07:56 50.2 °F /  10.1 °C 46.4 °F /  8 °C 30in /  1014.2hPa NNW 2.9mph /  4.7km/h 4mph /  6.4km/h 87% 0in /  0.0mm 0 W/m2
08:01 50.2 °F /  10.1 °C 46.4 °F /  8 °C 30in /  1014.2hPa West 4mph /  6.4km/h 8mph /  12.9km/h 87% 0in /  0.0mm 7 W/m2
08:06 49.8 °F /  9.9 °C 46.4 °F /  8 °C 30in /  1014.2hPa NNW 2mph /  3.2km/h 4mph /  6.4km/h 88% 0in /  0.0mm 7 W/m2
08:11 49.6 °F /  9.8 °C 46.2 °F /  7.9 °C 30in /  1014.6hPa SE 2mph /  3.2km/h 4mph /  6.4km/h 88% 0in /  0.0mm 5 W/m2
08:16 49.6 °F /  9.8 °C 46.6 °F /  8.1 °C 30in /  1014.6hPa WNW 2mph /  3.2km/h 4mph /  6.4km/h 89% 0in /  0.0mm 5 W/m2
08:21 49.6 °F /  9.8 °C 46.6 °F /  8.1 °C 30in /  1014.9hPa NNE 2mph /  3.2km/h 4mph /  6.4km/h 89% 0in /  0.0mm 19 W/m2
08:26 49.6 °F /  9.8 °C 46.8 °F /  8.2 °C 30in /  1014.9hPa WNW 2mph /  3.2km/h 5mph /  8km/h 90% 0in /  0.0mm 18 W/m2
08:31 49.5 °F /  9.7 °C 46.6 °F /  8.1 °C 30in /  1015.2hPa WNW 2mph /  3.2km/h 6mph /  9.7km/h 90% 0in /  0.0mm 11 W/m2
08:36 49.5 °F /  9.7 °C 46.6 °F /  8.1 °C 30in /  1015.2hPa WNW 6.9mph /  11.1km/h 7mph /  11.3km/h 90% 0in /  0.0mm 9 W/m2
08:41 49.6 °F /  9.8 °C 46.8 °F /  8.2 °C 30in /  1015.2hPa South 2mph /  3.2km/h 7mph /  11.3km/h 90% 0in /  0.0mm 12 W/m2
08:46 49.6 °F /  9.8 °C 46.8 °F /  8.2 °C 30in /  1015.2hPa WNW 2mph /  3.2km/h 4mph /  6.4km/h 90% 0in /  0.0mm 11 W/m2
08:51 49.6 °F /  9.8 °C 46.8 °F /  8.2 °C 30in /  1015.2hPa SE 4.9mph /  7.9km/h 5mph /  8km/h 90% 0in /  0.0mm 12 W/m2
08:56 49.6 °F /  9.8 °C 46.8 °F /  8.2 °C 30in /  1015.2hPa NW 2mph /  3.2km/h 9mph /  14.5km/h 90% 0in /  0.0mm 14 W/m2
09:01 49.6 °F /  9.8 °C 46.8 °F /  8.2 °C 30in /  1015.2hPa WNW 0.9mph /  1.4km/h 3mph /  4.8km/h 90% 0in /  0.0mm 21 W/m2
09:06 49.6 °F /  9.8 °C 46.8 °F /  8.2 °C 30in /  1015.6hPa SE 4mph /  6.4km/h 4mph /  6.4km/h 90% 0in /  0.0mm 28 W/m2
09:11 49.6 °F /  9.8 °C 46.8 °F /  8.2 °C 30in /  1015.6hPa West 2.9mph /  4.7km/h 4mph /  6.4km/h 90% 0in /  0.0mm 25 W/m2
09:16 49.6 °F /  9.8 °C 47.1 °F /  8.4 °C 30in /  1015.6hPa NNW 2mph /  3.2km/h 4mph /  6.4km/h 91% 0in /  0.0mm 39 W/m2
09:21 49.6 °F /  9.8 °C 47.1 °F /  8.4 °C 30in /  1015.6hPa WSW 2.9mph /  4.7km/h 5mph /  8km/h 91% 0in /  0.0mm 21 W/m2
09:26 49.6 °F /  9.8 °C 46.8 °F /  8.2 °C 30in /  1015.6hPa West 2mph /  3.2km/h 8mph /  12.9km/h 90% 0in /  0.0mm 23 W/m2
09:31 49.6 °F /  9.8 °C 47.1 °F /  8.4 °C 30in /  1015.9hPa WNW 4.9mph /  7.9km/h 8mph /  12.9km/h 91% 0in /  0.0mm 21 W/m2
09:36 49.6 °F /  9.8 °C 47.1 °F /  8.4 °C 30in /  1015.9hPa WSW 0.9mph /  1.4km/h 7mph /  11.3km/h 91% 0in /  0.0mm 23 W/m2
09:41 49.6 °F /  9.8 °C 47.1 °F /  8.4 °C 30in /  1015.9hPa Calm   2mph /  3.2km/h 91% 0in /  0.0mm 28 W/m2
09:46 49.6 °F /  9.8 °C 47.1 °F /  8.4 °C 30in /  1015.9hPa West 0.9mph /  1.4km/h 5mph /  8km/h 91% 0in /  0.0mm 21 W/m2
09:51 49.6 °F /  9.8 °C 47.1 °F /  8.4 °C 30in /  1015.9hPa ENE 0.9mph /  1.4km/h 2mph /  3.2km/h 91% 0in /  0.0mm 30 W/m2
09:56 49.6 °F /  9.8 °C 47.1 °F /  8.4 °C 30in /  1016.3hPa NW 4mph /  6.4km/h 5mph /  8km/h 91% 0in /  0.0mm 39 W/m2
10:01 49.6 °F /  9.8 °C 47.1 °F /  8.4 °C 30in /  1016.3hPa SW 2mph /  3.2km/h 10mph /  16.1km/h 91% 0in /  0.0mm 30 W/m2
10:07 49.8 °F /  9.9 °C 47.3 °F /  8.5 °C 30in /  1016.3hPa NW 0.9mph /  1.4km/h 5mph /  8km/h 91% 0in /  0.0mm 44 W/m2
10:12 49.8 °F /  9.9 °C 47.3 °F /  8.5 °C 30in /  1016.3hPa NNE 0.9mph /  1.4km/h 4mph /  6.4km/h 91% 0in /  0.0mm 37 W/m2
10:17 49.8 °F /  9.9 °C 47.3 °F /  8.5 °C 30in /  1016.3hPa NNE 0.9mph /  1.4km/h 3mph /  4.8km/h 91% 0.01in /  0.2mm 51 W/m2
10:22 50 °F /  10 °C 47.5 °F /  8.6 °C 30in /  1016.3hPa SSW 2.9mph /  4.7km/h 4mph /  6.4km/h 91% 0.01in /  0.2mm 72 W/m2
10:27 50.2 °F /  10.1 °C 47.7 °F /  8.7 °C 30in /  1016.3hPa NW 2mph /  3.2km/h 8mph /  12.9km/h 91% 0.01in /  0.2mm 49 W/m2
10:32 50.2 °F /  10.1 °C 47.3 °F /  8.5 °C 30in /  1016.6hPa WNW 0.9mph /  1.4km/h 4mph /  6.4km/h 90% 0.01in /  0.2mm 46 W/m2
10:37 50.2 °F /  10.1 °C 47.3 °F /  8.5 °C 30in /  1016.6hPa North 2.9mph /  4.7km/h 3mph /  4.8km/h 90% 0.01in /  0.2mm 49 W/m2
10:42 50.4 °F /  10.2 °C 47.5 °F /  8.6 °C 30in /  1016.6hPa WSW 2mph /  3.2km/h 4mph /  6.4km/h 90% 0.01in /  0.2mm 63 W/m2
10:47 50.4 °F /  10.2 °C 47.5 °F /  8.6 °C 30in /  1016.9hPa West 2.9mph /  4.7km/h 11mph /  17.7km/h 90% 0.01in /  0.2mm 76 W/m2
10:52 50.2 °F /  10.1 °C 47.7 °F /  8.7 °C 30in /  1016.9hPa South 6mph /  9.7km/h 6mph /  9.7km/h 91% 0.01in /  0.2mm 53 W/m2
10:57 50.2 °F /  10.1 °C 47.7 °F /  8.7 °C 30in /  1016.9hPa NNW 2mph /  3.2km/h 11mph /  17.7km/h 91% 0.01in /  0.2mm 81 W/m2
11:02 50.2 °F /  10.1 °C 47.7 °F /  8.7 °C 30in /  1016.9hPa West 2mph /  3.2km/h 13mph /  20.9km/h 91% 0.01in /  0.2mm 72 W/m2
11:07 50.2 °F /  10.1 °C 48 °F /  8.9 °C 30in /  1016.9hPa West 2mph /  3.2km/h 4mph /  6.4km/h 92% 0.01in /  0.2mm 76 W/m2
11:12 50.2 °F /  10.1 °C 48 °F /  8.9 °C 30in /  1016.9hPa NW 0.9mph /  1.4km/h 4mph /  6.4km/h 92% 0.01in /  0.2mm 72 W/m2
11:17 50.2 °F /  10.1 °C 48 °F /  8.9 °C 30in /  1016.9hPa NNW 2.9mph /  4.7km/h 4mph /  6.4km/h 92% 0in /  0.0mm 70 W/m2
11:22 50.4 °F /  10.2 °C 48.2 °F /  9 °C 30in /  1016.9hPa NW 0.9mph /  1.4km/h 6mph /  9.7km/h 92% 0in /  0.0mm 74 W/m2
11:27 50.4 °F /  10.2 °C 48.2 °F /  9 °C 30in /  1016.9hPa South 2mph /  3.2km/h 4mph /  6.4km/h 92% 0in /  0.0mm 102 W/m2
11:32 50.5 °F /  10.3 °C 48 °F /  8.9 °C 30in /  1017.3hPa West 2.9mph /  4.7km/h 8mph /  12.9km/h 91% 0in /  0.0mm 86 W/m2
11:37 50.5 °F /  10.3 °C 48 °F /  8.9 °C 30in /  1017.3hPa WSW 4mph /  6.4km/h 5mph /  8km/h 91% 0in /  0.0mm 100 W/m2
11:42 50.7 °F /  10.4 °C 48.2 °F /  9 °C 30in /  1017.3hPa WNW 0.9mph /  1.4km/h 5mph /  8km/h 91% 0in /  0.0mm 121 W/m2
11:47 50.9 °F /  10.5 °C 48 °F /  8.9 °C 30in /  1017.3hPa Calm   10mph /  16.1km/h 90% 0in /  0.0mm 156 W/m2
11:52 51.1 °F /  10.6 °C 48 °F /  8.9 °C 30in /  1017.3hPa WNW 4.9mph /  7.9km/h 11mph /  17.7km/h 89% 0in /  0.0mm 179 W/m2
11:57 51.3 °F /  10.7 °C 48.2 °F /  9 °C 30in /  1017.3hPa WNW 6.9mph /  11.1km/h 10mph /  16.1km/h 89% 0in /  0.0mm 148 W/m2
12:02 51.4 °F /  10.8 °C 48 °F /  8.9 °C 30in /  1017.3hPa WSW 4mph /  6.4km/h 7mph /  11.3km/h 88% 0in /  0.0mm 137 W/m2
12:07 51.4 °F /  10.8 °C 48 °F /  8.9 °C 30in /  1017.3hPa WSW 2.9mph /  4.7km/h 7mph /  11.3km/h 88% 0in /  0.0mm 116 W/m2
12:12 51.6 °F /  10.9 °C 48.2 °F /  9 °C 30.1in /  1017.6hPa WNW 6.9mph /  11.1km/h 7mph /  11.3km/h 88% 0in /  0.0mm 151 W/m2
12:17 51.6 °F /  10.9 °C 48.2 °F /  9 °C 30.1in /  1017.6hPa NW 4mph /  6.4km/h 10mph /  16.1km/h 88% 0in /  0.0mm 148 W/m2
12:22 51.6 °F /  10.9 °C 47.8 °F /  8.8 °C 30.1in /  1017.6hPa WSW 4mph /  6.4km/h 11mph /  17.7km/h 87% 0in /  0.0mm 105 W/m2
12:27 51.8 °F /  11 °C 48 °F /  8.9 °C 30.1in /  1018.0hPa North 2.9mph /  4.7km/h 5mph /  8km/h 87% 0in /  0.0mm 116 W/m2
12:32 51.8 °F /  11 °C 48 °F /  8.9 °C 30.1in /  1018.0hPa NNW 2mph /  3.2km/h 11mph /  17.7km/h 87% 0in /  0.0mm 137 W/m2
12:37 52 °F /  11.1 °C 48.2 °F /  9 °C 30.1in /  1018.0hPa West 6mph /  9.7km/h 6mph /  9.7km/h 87% 0in /  0.0mm 118 W/m2
12:42 52.2 °F /  11.2 °C 48 °F /  8.9 °C 30.1in /  1018.0hPa WNW 0.9mph /  1.4km/h 12mph /  19.3km/h 86% 0in /  0.0mm 105 W/m2
12:47 52.2 °F /  11.2 °C 48 °F /  8.9 °C 30.1in /  1018.0hPa NW 2.9mph /  4.7km/h 8mph /  12.9km/h 86% 0in /  0.0mm 109 W/m2
12:52 52.2 °F /  11.2 °C 47.8 °F /  8.8 °C 30.1in /  1018.0hPa WSW 2mph /  3.2km/h 12mph /  19.3km/h 85% 0in /  0.0mm 93 W/m2
12:57 52.3 °F /  11.3 °C 48 °F /  8.9 °C 30.1in /  1018.0hPa WNW 2mph /  3.2km/h 8mph /  12.9km/h 85% 0in /  0.0mm 105 W/m2
13:02 52.3 °F /  11.3 °C 47.7 °F /  8.7 °C 30.1in /  1018.0hPa WSW 2mph /  3.2km/h 10mph /  16.1km/h 84% 0in /  0.0mm 90 W/m2
13:07 52.3 °F /  11.3 °C 48 °F /  8.9 °C 30.1in /  1018.0hPa SSW 8.9mph /  14.3km/h 12mph /  19.3km/h 85% 0in /  0.0mm 120 W/m2
13:12 52.3 °F /  11.3 °C 48 °F /  8.9 °C 30.1in /  1018.0hPa NNW 2.9mph /  4.7km/h 7mph /  11.3km/h 85% 0in /  0.0mm 83 W/m2
13:17 52.3 °F /  11.3 °C 48 °F /  8.9 °C 30.1in /  1018.3hPa SW 4.9mph /  7.9km/h 12mph /  19.3km/h 85% 0in /  0.0mm 58 W/m2
13:22 52.2 °F /  11.2 °C 47.8 °F /  8.8 °C 30.1in /  1018.3hPa West 2mph /  3.2km/h 7mph /  11.3km/h 85% 0in /  0.0mm 58 W/m2
13:27 52 °F /  11.1 °C 48.2 °F /  9 °C 30.1in /  1018.3hPa WNW 4mph /  6.4km/h 10mph /  16.1km/h 87% 0in /  0.0mm 62 W/m2
13:32 51.4 °F /  10.8 °C 48 °F /  8.9 °C 30.1in /  1018.3hPa WSW 4mph /  6.4km/h 7mph /  11.3km/h 88% 0in /  0.0mm 130 W/m2
13:37 51.4 °F /  10.8 °C 48 °F /  8.9 °C 30.1in /  1018.3hPa NW 8.1mph /  13km/h 8mph /  12.9km/h 88% 0in /  0.0mm 149 W/m2
13:42 51.4 °F /  10.8 °C 48 °F /  8.9 °C 30.1in /  1018.3hPa WSW 0.9mph /  1.4km/h 5mph /  8km/h 88% 0in /  0.0mm 120 W/m2
13:47 51.6 °F /  10.9 °C 47.8 °F /  8.8 °C 30.1in /  1018.3hPa WNW 8.9mph /  14.3km/h 9mph /  14.5km/h 87% 0in /  0.0mm 179 W/m2
13:52 52 °F /  11.1 °C 48.2 °F /  9 °C 30.1in /  1018.3hPa WNW 2.9mph /  4.7km/h 6mph /  9.7km/h 87% 0in /  0.0mm 69 W/m2
13:57 52 °F /  11.1 °C 47.8 °F /  8.8 °C 30.1in /  1018.3hPa West 0.9mph /  1.4km/h 9mph /  14.5km/h 86% 0in /  0.0mm 107 W/m2
14:02 52.2 °F /  11.2 °C 47.8 °F /  8.8 °C 30.1in /  1018.3hPa WNW 2mph /  3.2km/h 10mph /  16.1km/h 85% 0in /  0.0mm 111 W/m2
14:07 52.2 °F /  11.2 °C 47.8 °F /  8.8 °C 30.1in /  1018.3hPa West 4mph /  6.4km/h 8mph /  12.9km/h 85% 0in /  0.0mm 60 W/m2
14:12 52.2 °F /  11.2 °C 47.8 °F /  8.8 °C 30.1in /  1018.6hPa WNW 2mph /  3.2km/h 4mph /  6.4km/h 85% 0in /  0.0mm 69 W/m2
14:17 52.2 °F /  11.2 °C 47.8 °F /  8.8 °C 30.1in /  1018.3hPa WSW 4mph /  6.4km/h 8mph /  12.9km/h 85% 0in /  0.0mm 84 W/m2
14:22 52.2 °F /  11.2 °C 47.8 °F /  8.8 °C 30.1in /  1018.3hPa West 10.1mph /  16.3km/h 10mph /  16.1km/h 85% 0in /  0.0mm 60 W/m2
14:27 52.2 °F /  11.2 °C 47.5 °F /  8.6 °C 30.1in /  1018.6hPa West 6mph /  9.7km/h 11mph /  17.7km/h 84% 0in /  0.0mm 70 W/m2
14:32 52.2 °F /  11.2 °C 47.8 °F /  8.8 °C 30.1in /  1018.3hPa SW 4.9mph /  7.9km/h 9mph /  14.5km/h 85% 0in /  0.0mm 77 W/m2
14:37 52.2 °F /  11.2 °C 47.8 °F /  8.8 °C 30.1in /  1018.6hPa West 6.9mph /  11.1km/h 10mph /  16.1km/h 85% 0in /  0.0mm 105 W/m2
14:42 52.2 °F /  11.2 °C 47.8 °F /  8.8 °C 30.1in /  1018.6hPa NW 2.9mph /  4.7km/h 7mph /  11.3km/h 85% 0in /  0.0mm 100 W/m2
14:47 52.2 °F /  11.2 °C 47.8 °F /  8.8 °C 30.1in /  1018.6hPa NE 0.9mph /  1.4km/h 10mph /  16.1km/h 85% 0in /  0.0mm 95 W/m2
14:52 52.3 °F /  11.3 °C 47.7 °F /  8.7 °C 30.1in /  1018.6hPa NW 2.9mph /  4.7km/h 11mph /  17.7km/h 84% 0in /  0.0mm 83 W/m2
14:57 52.3 °F /  11.3 °C 47.7 °F /  8.7 °C 30.1in /  1018.6hPa NW 4.9mph /  7.9km/h 9mph /  14.5km/h 84% 0in /  0.0mm 109 W/m2
15:02 52.2 °F /  11.2 °C 47.5 °F /  8.6 °C 30.1in /  1019.0hPa SW 10.1mph /  16.3km/h 13mph /  20.9km/h 84% 0in /  0.0mm 54 W/m2
15:07 52.2 °F /  11.2 °C 47.5 °F /  8.6 °C 30.1in /  1019.0hPa WNW 2.9mph /  4.7km/h 7mph /  11.3km/h 84% 0in /  0.0mm 33 W/m2
15:13 52 °F /  11.1 °C 47.7 °F /  8.7 °C 30.1in /  1019.0hPa NW 2mph /  3.2km/h 11mph /  17.7km/h 85% 0in /  0.0mm 37 W/m2
15:18 52 °F /  11.1 °C 47.7 °F /  8.7 °C 30.1in /  1019.0hPa WNW 2.9mph /  4.7km/h 4mph /  6.4km/h 85% 0in /  0.0mm 53 W/m2
15:23 52 °F /  11.1 °C 47.7 °F /  8.7 °C 30.1in /  1019.0hPa West 2mph /  3.2km/h 8mph /  12.9km/h 85% 0in /  0.0mm 51 W/m2
15:28 52 °F /  11.1 °C 47.7 °F /  8.7 °C 30.1in /  1019.3hPa NW 4mph /  6.4km/h 7mph /  11.3km/h 85% 0in /  0.0mm 65 W/m2
15:33 51.8 °F /  11 °C 47.5 °F /  8.6 °C 30.1in /  1019.3hPa WNW 0.9mph /  1.4km/h 10mph /  16.1km/h 85% 0in /  0.0mm 54 W/m2
15:38 51.8 °F /  11 °C 47.5 °F /  8.6 °C 30.1in /  1019.3hPa NNW 2.9mph /  4.7km/h 9mph /  14.5km/h 85% 0in /  0.0mm 42 W/m2
15:43 51.6 °F /  10.9 °C 47.5 °F /  8.6 °C 30.1in /  1019.6hPa Calm   9mph /  14.5km/h 86% 0in /  0.0mm 32 W/m2
15:48 51.6 °F /  10.9 °C 47.5 °F /  8.6 °C 30.1in /  1019.6hPa West 6.9mph /  11.1km/h 7mph /  11.3km/h 86% 0in /  0.0mm 30 W/m2
15:53 51.4 °F /  10.8 °C 47.7 °F /  8.7 °C 30.1in /  1019.6hPa West 2mph /  3.2km/h 13mph /  20.9km/h 87% 0in /  0.0mm 23 W/m2
15:58 51.3 °F /  10.7 °C 47.5 °F /  8.6 °C 30.1in /  1020.0hPa West 4mph /  6.4km/h 10mph /  16.1km/h 87% 0in /  0.0mm 25 W/m2
16:03 51.3 °F /  10.7 °C 47.5 °F /  8.6 °C 30.1in /  1019.6hPa WNW 0.9mph /  1.4km/h 13mph /  20.9km/h 87% 0in /  0.0mm 32 W/m2
16:08 51.3 °F /  10.7 °C 47.5 °F /  8.6 °C 30.1in /  1020.0hPa WSW 4.9mph /  7.9km/h 7mph /  11.3km/h 87% 0in /  0.0mm 25 W/m2
16:13 51.1 °F /  10.6 °C 47.3 °F /  8.5 °C 30.1in /  1019.6hPa Calm   4mph /  6.4km/h 87% 0in /  0.0mm 18 W/m2
16:18 51.1 °F /  10.6 °C 47.7 °F /  8.7 °C 30.1in /  1020.0hPa NW 0.9mph /  1.4km/h 3mph /  4.8km/h 88% 0in /  0.0mm 12 W/m2
16:23 50.9 °F /  10.5 °C 47.1 °F /  8.4 °C 30.1in /  1020.0hPa NW 2mph /  3.2km/h 8mph /  12.9km/h 87% 0in /  0.0mm 12 W/m2
16:28 50.9 °F /  10.5 °C 47.1 °F /  8.4 °C 30.1in /  1020.3hPa WNW 2mph /  3.2km/h 6mph /  9.7km/h 87% 0in /  0.0mm 11 W/m2
16:33 50.9 °F /  10.5 °C 47.1 °F /  8.4 °C 30.1in /  1020.3hPa NW 2mph /  3.2km/h 8mph /  12.9km/h 87% 0in /  0.0mm 9 W/m2
16:38 50.7 °F /  10.4 °C 46.9 °F /  8.3 °C 30.1in /  1020.3hPa WNW 0.9mph /  1.4km/h 9mph /  14.5km/h 87% 0in /  0.0mm 9 W/m2
16:43 50.7 °F /  10.4 °C 46.9 °F /  8.3 °C 30.1in /  1020.7hPa NNW 4mph /  6.4km/h 5mph /  8km/h 87% 0in /  0.0mm 7 W/m2
16:48 50.7 °F /  10.4 °C 46.9 °F /  8.3 °C 30.1in /  1020.3hPa West 4mph /  6.4km/h 5mph /  8km/h 87% 0in /  0.0mm 0 W/m2
16:53 50.7 °F /  10.4 °C 46.9 °F /  8.3 °C 30.1in /  1020.3hPa Calm   2mph /  3.2km/h 87% 0in /  0.0mm 0 W/m2
16:58 50.5 °F /  10.3 °C 46.8 °F /  8.2 °C 30.1in /  1020.7hPa WNW 0.9mph /  1.4km/h 5mph /  8km/h 87% 0in /  0.0mm 0 W/m2
17:03 50.5 °F /  10.3 °C 46.8 °F /  8.2 °C 30.1in /  1020.7hPa WNW 2mph /  3.2km/h 4mph /  6.4km/h 87% 0in /  0.0mm 0 W/m2
17:08 50.5 °F /  10.3 °C 46.8 °F /  8.2 °C 30.1in /  1020.7hPa WNW 2mph /  3.2km/h 6mph /  9.7km/h 87% 0in /  0.0mm 0 W/m2
17:13 50.5 °F /  10.3 °C 46.8 °F /  8.2 °C 30.2in /  1021.0hPa West 2mph /  3.2km/h 6mph /  9.7km/h 87% 0in /  0.0mm 0 W/m2
17:18 50.5 °F /  10.3 °C 46.8 °F /  8.2 °C 30.2in /  1021.0hPa West 0.9mph /  1.4km/h 4mph /  6.4km/h 87% 0in /  0.0mm 0 W/m2
17:23 50.5 °F /  10.3 °C 46.8 °F /  8.2 °C 30.2in /  1021.0hPa NW 2mph /  3.2km/h 6mph /  9.7km/h 87% 0in /  0.0mm 0 W/m2
17:28 50.5 °F /  10.3 °C 46.8 °F /  8.2 °C 30.2in /  1021.0hPa WNW 4mph /  6.4km/h 7mph /  11.3km/h 87% 0in /  0.0mm 0 W/m2
17:33 50.5 °F /  10.3 °C 46.8 °F /  8.2 °C 30.2in /  1021.0hPa West 2mph /  3.2km/h 4mph /  6.4km/h 87% 0in /  0.0mm 0 W/m2
17:38 50.5 °F /  10.3 °C 46.8 °F /  8.2 °C 30.2in /  1021.3hPa WSW 0.9mph /  1.4km/h 4mph /  6.4km/h 87% 0in /  0.0mm 0 W/m2
17:43 50.5 °F /  10.3 °C 46.8 °F /  8.2 °C 30.2in /  1021.3hPa NE 2mph /  3.2km/h 4mph /  6.4km/h 87% 0in /  0.0mm 0 W/m2
17:48 50.5 °F /  10.3 °C 46.8 °F /  8.2 °C 30.2in /  1021.3hPa WNW 2.9mph /  4.7km/h 7mph /  11.3km/h 87% 0in /  0.0mm 0 W/m2
17:53 50.5 °F /  10.3 °C 47.1 °F /  8.4 °C 30.2in /  1021.7hPa WNW 4.9mph /  7.9km/h 6mph /  9.7km/h 88% 0in /  0.0mm 0 W/m2
17:58 50 °F /  10 °C 46.9 °F /  8.3 °C 30.2in /  1021.3hPa WNW 4mph /  6.4km/h 11mph /  17.7km/h 89% 0.01in /  0.2mm 0 W/m2
18:03 49.6 °F /  9.8 °C 46.6 °F /  8.1 °C 30.2in /  1021.3hPa WNW 6.9mph /  11.1km/h 11mph /  17.7km/h 89% 0.01in /  0.2mm 0 W/m2
18:08 49.6 °F /  9.8 °C 46.8 °F /  8.2 °C 30.2in /  1021.7hPa WNW 2.9mph /  4.7km/h 5mph /  8km/h 90% 0.01in /  0.2mm 0 W/m2
18:13 49.5 °F /  9.7 °C 46.6 °F /  8.1 °C 30.2in /  1021.7hPa Calm   11mph /  17.7km/h 90% 0.01in /  0.2mm 0 W/m2
18:18 49.5 °F /  9.7 °C 46.9 °F /  8.3 °C 30.2in /  1021.7hPa West 4mph /  6.4km/h 9mph /  14.5km/h 91% 0.01in /  0.2mm 0 W/m2
18:23 49.3 °F /  9.6 °C 46.8 °F /  8.2 °C 30.2in /  1022.0hPa Calm   4mph /  6.4km/h 91% 0.01in /  0.2mm 0 W/m2
18:28 49.3 °F /  9.6 °C 46.8 °F /  8.2 °C 30.2in /  1022.0hPa West 4mph /  6.4km/h 9mph /  14.5km/h 91% 0.01in /  0.2mm 0 W/m2
18:33 49.5 °F /  9.7 °C 46.9 °F /  8.3 °C 30.2in /  1022.0hPa SW 2.9mph /  4.7km/h 3mph /  4.8km/h 91% 0.01in /  0.2mm 0 W/m2
18:38 49.3 °F /  9.6 °C 46.8 °F /  8.2 °C 30.2in /  1022.0hPa WNW 0.9mph /  1.4km/h 7mph /  11.3km/h 91% 0.01in /  0.2mm 0 W/m2
18:43 49.5 °F /  9.7 °C 46.9 °F /  8.3 °C 30.2in /  1022.4hPa Calm   3mph /  4.8km/h 91% 0.01in /  0.2mm 0 W/m2
18:48 49.5 °F /  9.7 °C 46.9 °F /  8.3 °C 30.2in /  1022.4hPa West 2mph /  3.2km/h 3mph /  4.8km/h 91% 0.01in /  0.2mm 0 W/m2
18:53 49.3 °F /  9.6 °C 46.8 °F /  8.2 °C 30.2in /  1022.4hPa Calm   2mph /  3.2km/h 91% 0.01in /  0.2mm 0 W/m2
18:58 49.3 °F /  9.6 °C 47.1 °F /  8.4 °C 30.2in /  1022.4hPa West 2.9mph /  4.7km/h 3mph /  4.8km/h 92% 0in /  0.0mm 0 W/m2
19:03 49.3 °F /  9.6 °C 47.1 °F /  8.4 °C 30.2in /  1022.4hPa West 0.9mph /  1.4km/h 2mph /  3.2km/h 92% 0in /  0.0mm 0 W/m2
19:08 49.5 °F /  9.7 °C 47.3 °F /  8.5 °C 30.2in /  1022.7hPa WNW 2.9mph /  4.7km/h 6mph /  9.7km/h 92% 0in /  0.0mm 0 W/m2
19:13 49.5 °F /  9.7 °C 47.3 °F /  8.5 °C 30.2in /  1022.4hPa WNW 2mph /  3.2km/h 3mph /  4.8km/h 92% 0in /  0.0mm 0 W/m2
19:18 49.5 °F /  9.7 °C 47.3 °F /  8.5 °C 30.2in /  1022.7hPa WSW 2mph /  3.2km/h 4mph /  6.4km/h 92% 0in /  0.0mm 0 W/m2
19:23 49.5 °F /  9.7 °C 47.3 °F /  8.5 °C 30.2in /  1022.7hPa WNW 4mph /  6.4km/h 4mph /  6.4km/h 92% 0in /  0.0mm 0 W/m2
19:28 49.5 °F /  9.7 °C 47.3 °F /  8.5 °C 30.2in /  1022.7hPa WNW 2mph /  3.2km/h 4mph /  6.4km/h 92% 0in /  0.0mm 0 W/m2
Juneau County Weather
Compliments of Weather Underground - 2 mb